sensor_id;sensor_type;location;lat;lon;timestamp;temperature;humidity
66582;SHT31;53438;48.898;2.308;2023-07-09T03:00:36;23.29;77.13
66582;SHT31;53438;48.898;2.308;2023-07-09T03:03:02;23.15;77.62
66582;SHT31;53438;48.898;2.308;2023-07-09T03:05:27;23.30;77.04
66582;SHT31;53438;48.898;2.308;2023-07-09T03:07:52;23.39;76.64
66582;SHT31;53438;48.898;2.308;2023-07-09T03:10:18;23.46;76.41
66582;SHT31;53438;48.898;2.308;2023-07-09T03:12:43;23.54;76.17
66582;SHT31;53438;48.898;2.308;2023-07-09T03:15:09;23.39;76.67
66582;SHT31;53438;48.898;2.308;2023-07-09T03:17:34;23.32;76.66
66582;SHT31;53438;48.898;2.308;2023-07-09T03:19:59;23.19;77.23
66582;SHT31;53438;48.898;2.308;2023-07-09T03:22:25;23.33;76.69
66582;SHT31;53438;48.898;2.308;2023-07-09T03:24:50;23.27;76.84
66582;SHT31;53438;48.898;2.308;2023-07-09T03:27:15;23.29;76.81
66582;SHT31;53438;48.898;2.308;2023-07-09T03:29:41;23.38;76.41
66582;SHT31;53438;48.898;2.308;2023-07-09T03:32:06;23.29;76.56
66582;SHT31;53438;48.898;2.308;2023-07-09T03:34:31;23.27;76.44
66582;SHT31;53438;48.898;2.308;2023-07-09T03:36:57;23.15;77.08
66582;SHT31;53438;48.898;2.308;2023-07-09T03:39:22;23.11;77.14
66582;SHT31;53438;48.898;2.308;2023-07-09T03:41:48;23.11;76.99
66582;SHT31;53438;48.898;2.308;2023-07-09T03:44:13;23.06;77.09
66582;SHT31;53438;48.898;2.308;2023-07-09T03:46:39;22.95;77.55
66582;SHT31;53438;48.898;2.308;2023-07-09T03:49:04;22.82;77.52
66582;SHT31;53438;48.898;2.308;2023-07-09T03:51:29;22.84;77.53
66582;SHT31;53438;48.898;2.308;2023-07-09T03:53:55;22.99;76.93
66582;SHT31;53438;48.898;2.308;2023-07-09T03:56:20;23.15;76.43
66582;SHT31;53438;48.898;2.308;2023-07-09T03:58:46;22.98;76.89
66582;SHT31;53438;48.898;2.308;2023-07-09T04:01:11;22.91;77.00
66582;SHT31;53438;48.898;2.308;2023-07-09T04:03:37;22.85;77.24
66582;SHT31;53438;48.898;2.308;2023-07-09T04:06:02;22.74;77.48
66582;SHT31;53438;48.898;2.308;2023-07-09T04:08:28;22.84;77.32
66582;SHT31;53438;48.898;2.308;2023-07-09T04:10:54;23.05;76.73
66582;SHT31;53438;48.898;2.308;2023-07-09T04:13:22;23.09;76.37
66582;SHT31;53438;48.898;2.308;2023-07-09T04:15:47;23.08;76.31
66582;SHT31;53438;48.898;2.308;2023-07-09T04:18:12;22.90;76.72
66582;SHT31;53438;48.898;2.308;2023-07-09T04:20:38;22.98;76.26
66582;SHT31;53438;48.898;2.308;2023-07-09T04:23:06;22.88;76.13
66582;SHT31;53438;48.898;2.308;2023-07-09T04:25:31;22.96;75.92
66582;SHT31;53438;48.898;2.308;2023-07-09T04:27:57;23.01;75.45
66582;SHT31;53438;48.898;2.308;2023-07-09T04:30:22;23.06;75.09
66582;SHT31;53438;48.898;2.308;2023-07-09T04:32:48;23.26;74.50
66582;SHT31;53438;48.898;2.308;2023-07-09T04:35:14;23.33;73.93
66582;SHT31;53438;48.898;2.308;2023-07-09T04:37:40;23.24;73.87
66582;SHT31;53438;48.898;2.308;2023-07-09T04:40:07;22.95;74.28
66582;SHT31;53438;48.898;2.308;2023-07-09T04:42:36;23.16;73.57
66582;SHT31;53438;48.898;2.308;2023-07-09T04:45:02;23.20;73.56
66582;SHT31;53438;48.898;2.308;2023-07-09T04:47:27;23.15;73.57
66582;SHT31;53438;48.898;2.308;2023-07-09T04:49:52;23.23;73.18
66582;SHT31;53438;48.898;2.308;2023-07-09T04:52:18;22.95;73.83
66582;SHT31;53438;48.898;2.308;2023-07-09T04:54:43;23.11;73.01
66582;SHT31;53438;48.898;2.308;2023-07-09T04:57:10;23.03;73.12
66582;SHT31;53438;48.898;2.308;2023-07-09T04:59:37;22.76;73.96
66582;SHT31;53438;48.898;2.308;2023-07-09T05:02:03;22.94;73.57
66582;SHT31;53438;48.898;2.308;2023-07-09T05:04:29;22.88;73.17
66582;SHT31;53438;48.898;2.308;2023-07-09T05:06:56;23.05;72.87
66582;SHT31;53438;48.898;2.308;2023-07-09T05:09:22;22.87;73.36
66582;SHT31;53438;48.898;2.308;2023-07-09T05:11:49;22.99;72.88
66582;SHT31;53438;48.898;2.308;2023-07-09T05:14:14;23.01;72.85
66582;SHT31;53438;48.898;2.308;2023-07-09T05:16:40;22.90;72.57
66582;SHT31;53438;48.898;2.308;2023-07-09T05:19:07;23.11;71.87
66582;SHT31;53438;48.898;2.308;2023-07-09T05:21:33;23.22;71.61
66582;SHT31;53438;48.898;2.308;2023-07-09T05:23:59;23.42;71.11
66582;SHT31;53438;48.898;2.308;2023-07-09T05:26:25;23.47;70.86
66582;SHT31;53438;48.898;2.308;2023-07-09T05:28:50;23.66;70.47
66582;SHT31;53438;48.898;2.308;2023-07-09T05:31:15;23.81;69.61
66582;SHT31;53438;48.898;2.308;2023-07-09T05:33:41;23.63;69.99
66582;SHT31;53438;48.898;2.308;2023-07-09T05:36:08;23.74;69.42
66582;SHT31;53438;48.898;2.308;2023-07-09T05:38:33;23.87;68.67
66582;SHT31;53438;48.898;2.308;2023-07-09T05:41:03;23.97;68.42
66582;SHT31;53438;48.898;2.308;2023-07-09T05:43:30;24.07;67.97
66582;SHT31;53438;48.898;2.308;2023-07-09T05:45:56;24.08;67.99
66582;SHT31;53438;48.898;2.308;2023-07-09T05:48:22;24.04;67.82
66582;SHT31;53438;48.898;2.308;2023-07-09T05:50:48;24.10;67.57
66582;SHT31;53438;48.898;2.308;2023-07-09T05:53:14;23.96;67.73
66582;SHT31;53438;48.898;2.308;2023-07-09T05:55:39;24.07;67.22
66582;SHT31;53438;48.898;2.308;2023-07-09T05:58:04;24.14;67.07
66582;SHT31;53438;48.898;2.308;2023-07-09T06:00:30;24.22;66.78
66582;SHT31;53438;48.898;2.308;2023-07-09T06:02:55;24.33;66.18
66582;SHT31;53438;48.898;2.308;2023-07-09T06:05:21;24.56;65.29
66582;SHT31;53438;48.898;2.308;2023-07-09T06:07:47;24.53;64.95
66582;SHT31;53438;48.898;2.308;2023-07-09T06:10:12;24.52;65.16
66582;SHT31;53438;48.898;2.308;2023-07-09T06:12:39;24.47;65.38
66582;SHT31;53438;48.898;2.308;2023-07-09T06:15:05;24.59;64.93
66582;SHT31;53438;48.898;2.308;2023-07-09T06:17:31;24.80;64.35
66582;SHT31;53438;48.898;2.308;2023-07-09T06:19:56;24.61;64.89
66582;SHT31;53438;48.898;2.308;2023-07-09T06:22:22;24.63;64.64
66582;SHT31;53438;48.898;2.308;2023-07-09T06:24:47;24.59;64.40
66582;SHT31;53438;48.898;2.308;2023-07-09T06:27:12;24.58;64.55
66582;SHT31;53438;48.898;2.308;2023-07-09T06:29:38;24.35;64.82
66582;SHT31;53438;48.898;2.308;2023-07-09T06:32:04;24.45;64.49
66582;SHT31;53438;48.898;2.308;2023-07-09T06:34:29;24.35;64.97
66582;SHT31;53438;48.898;2.308;2023-07-09T06:36:56;24.11;65.88
66582;SHT31;53438;48.898;2.308;2023-07-09T06:39:21;24.25;65.59
66582;SHT31;53438;48.898;2.308;2023-07-09T06:41:48;24.45;65.15
66582;SHT31;53438;48.898;2.308;2023-07-09T06:44:13;24.63;64.57
66582;SHT31;53438;48.898;2.308;2023-07-09T06:46:39;24.75;64.20
66582;SHT31;53438;48.898;2.308;2023-07-09T06:49:04;24.91;63.89
66582;SHT31;53438;48.898;2.308;2023-07-09T06:51:32;24.73;64.18
66582;SHT31;53438;48.898;2.308;2023-07-09T06:53:58;24.73;64.31
66582;SHT31;53438;48.898;2.308;2023-07-09T06:56:24;24.73;64.40
66582;SHT31;53438;48.898;2.308;2023-07-09T06:58:49;24.72;64.63
66582;SHT31;53438;48.898;2.308;2023-07-09T07:01:14;24.72;64.57
66582;SHT31;53438;48.898;2.308;2023-07-09T07:03:40;24.70;64.52
66582;SHT31;53438;48.898;2.308;2023-07-09T07:06:05;24.89;63.85
66582;SHT31;53438;48.898;2.308;2023-07-09T07:08:32;24.84;63.85
66582;SHT31;53438;48.898;2.308;2023-07-09T07:11:00;25.00;63.36
66582;SHT31;53438;48.898;2.308;2023-07-09T07:13:36;25.03;63.03
66582;SHT31;53438;48.898;2.308;2023-07-09T07:16:05;24.93;63.54
66582;SHT31;53438;48.898;2.308;2023-07-09T07:18:31;24.52;64.71
66582;SHT31;53438;48.898;2.308;2023-07-09T07:20:56;24.82;64.13
66582;SHT31;53438;48.898;2.308;2023-07-09T07:23:22;24.84;63.41
66582;SHT31;53438;48.898;2.308;2023-07-09T07:25:48;24.93;63.51
66582;SHT31;53438;48.898;2.308;2023-07-09T07:28:15;24.68;65.55
66582;SHT31;53438;48.898;2.308;2023-07-09T07:30:41;24.79;65.68
66582;SHT31;53438;48.898;2.308;2023-07-09T07:33:07;24.90;65.38
66582;SHT31;53438;48.898;2.308;2023-07-09T07:35:32;24.59;66.05
66582;SHT31;53438;48.898;2.308;2023-07-09T07:37:58;24.52;66.40
66582;SHT31;53438;48.898;2.308;2023-07-09T07:40:23;24.48;66.37
66582;SHT31;53438;48.898;2.308;2023-07-09T07:42:48;24.39;66.20
66582;SHT31;53438;48.898;2.308;2023-07-09T07:45:14;24.55;65.80
66582;SHT31;53438;48.898;2.308;2023-07-09T07:47:39;24.48;65.65
66582;SHT31;53438;48.898;2.308;2023-07-09T07:50:07;24.31;66.34
66582;SHT31;53438;48.898;2.308;2023-07-09T07:52:32;24.35;66.22
66582;SHT31;53438;48.898;2.308;2023-07-09T07:54:58;24.14;66.87
66582;SHT31;53438;48.898;2.308;2023-07-09T07:57:26;24.14;66.49
66582;SHT31;53438;48.898;2.308;2023-07-09T07:59:52;23.94;67.10
66582;SHT31;53438;48.898;2.308;2023-07-09T08:02:17;24.07;66.95
66582;SHT31;53438;48.898;2.308;2023-07-09T08:04:42;24.05;66.89
66582;SHT31;53438;48.898;2.308;2023-07-09T08:07:09;23.96;66.58
66582;SHT31;53438;48.898;2.308;2023-07-09T08:09:35;24.10;66.42
66582;SHT31;53438;48.898;2.308;2023-07-09T08:12:02;24.01;66.73
66582;SHT31;53438;48.898;2.308;2023-07-09T08:14:36;23.88;66.79
66582;SHT31;53438;48.898;2.308;2023-07-09T08:17:01;23.96;66.47
66582;SHT31;53438;48.898;2.308;2023-07-09T08:19:27;23.85;66.88
66582;SHT31;53438;48.898;2.308;2023-07-09T08:21:52;23.75;67.21
66582;SHT31;53438;48.898;2.308;2023-07-09T08:24:18;23.98;66.85
66582;SHT31;53438;48.898;2.308;2023-07-09T08:26:44;23.90;67.01
66582;SHT31;53438;48.898;2.308;2023-07-09T08:29:09;23.73;67.82
66582;SHT31;53438;48.898;2.308;2023-07-09T08:31:34;23.78;67.87
66582;SHT31;53438;48.898;2.308;2023-07-09T08:34:00;23.91;67.72
66582;SHT31;53438;48.898;2.308;2023-07-09T08:36:25;23.59;69.59
66582;SHT31;53438;48.898;2.308;2023-07-09T08:38:50;23.69;69.65
66582;SHT31;53438;48.898;2.308;2023-07-09T08:48:59;23.88;69.24
66582;SHT31;53438;48.898;2.308;2023-07-09T08:51:38;23.87;69.32
66582;SHT31;53438;48.898;2.308;2023-07-09T08:54:09;23.80;69.72
66582;SHT31;53438;48.898;2.308;2023-07-09T08:56:38;24.02;69.45
66582;SHT31;53438;48.898;2.308;2023-07-09T08:59:04;24.04;68.73
66582;SHT31;53438;48.898;2.308;2023-07-09T09:01:40;24.20;68.33
66582;SHT31;53438;48.898;2.308;2023-07-09T09:06:47;24.36;68.01
66582;SHT31;53438;48.898;2.308;2023-07-09T09:14:49;24.48;67.15
66582;SHT31;53438;48.898;2.308;2023-07-09T09:17:19;24.55;67.12
66582;SHT31;53438;48.898;2.308;2023-07-09T09:19:54;24.55;66.81
66582;SHT31;53438;48.898;2.308;2023-07-09T09:22:31;24.42;67.33
66582;SHT31;53438;48.898;2.308;2023-07-09T09:25:16;24.43;67.12
66582;SHT31;53438;48.898;2.308;2023-07-09T09:27:43;24.21;67.37
66582;SHT31;53438;48.898;2.308;2023-07-09T09:30:14;24.39;67.05
66582;SHT31;53438;48.898;2.308;2023-07-09T09:32:43;24.36;66.68
66582;SHT31;53438;48.898;2.308;2023-07-09T09:35:15;24.36;66.61
66582;SHT31;53438;48.898;2.308;2023-07-09T09:37:51;24.20;67.26
66582;SHT31;53438;48.898;2.308;2023-07-09T09:40:18;24.11;67.72
66582;SHT31;53438;48.898;2.308;2023-07-09T09:42:47;23.97;67.82
66582;SHT31;53438;48.898;2.308;2023-07-09T09:45:15;24.24;67.37
66582;SHT31;53438;48.898;2.308;2023-07-09T09:47:43;24.11;68.43
66582;SHT31;53438;48.898;2.308;2023-07-09T09:50:13;24.22;68.86
66582;SHT31;53438;48.898;2.308;2023-07-09T09:52:39;24.17;69.16
66582;SHT31;53438;48.898;2.308;2023-07-09T09:55:13;24.17;69.32
66582;SHT31;53438;48.898;2.308;2023-07-09T09:57:47;24.08;69.63
66582;SHT31;53438;48.898;2.308;2023-07-09T10:00:14;24.04;71.06
66582;SHT31;53438;48.898;2.308;2023-07-09T10:02:41;23.90;70.53
66582;SHT31;53438;48.898;2.308;2023-07-09T10:05:21;23.83;70.77
66582;SHT31;53438;48.898;2.308;2023-07-09T10:10:44;23.81;69.89
66582;SHT31;53438;48.898;2.308;2023-07-09T10:13:26;24.02;70.99
66582;SHT31;53438;48.898;2.308;2023-07-09T10:18:48;24.14;70.41
66582;SHT31;53438;48.898;2.308;2023-07-09T10:21:29;24.25;70.05
66582;SHT31;53438;48.898;2.308;2023-07-09T10:24:26;24.36;70.01
66582;SHT31;53438;48.898;2.308;2023-07-09T10:27:08;24.36;70.63
66582;SHT31;53438;48.898;2.308;2023-07-09T10:29:45;24.31;71.62
66582;SHT31;53438;48.898;2.308;2023-07-09T10:32:42;24.41;71.82
66582;SHT31;53438;48.898;2.308;2023-07-09T10:38:07;23.93;71.89
66582;SHT31;53438;48.898;2.308;2023-07-09T10:40:45;24.01;72.16
66582;SHT31;53438;48.898;2.308;2023-07-09T10:43:22;24.02;72.20
66582;SHT31;53438;48.898;2.308;2023-07-09T10:45:57;24.07;71.23
66582;SHT31;53438;48.898;2.308;2023-07-09T10:48:35;23.98;69.71
66582;SHT31;53438;48.898;2.308;2023-07-09T10:51:01;24.22;69.38
66582;SHT31;53438;48.898;2.308;2023-07-09T10:53:35;24.35;69.23
66582;SHT31;53438;48.898;2.308;2023-07-09T10:56:12;24.45;69.89
66582;SHT31;53438;48.898;2.308;2023-07-09T11:01:13;24.66;69.72
66582;SHT31;53438;48.898;2.308;2023-07-09T11:03:44;24.69;69.19
66582;SHT31;53438;48.898;2.308;2023-07-09T11:06:34;25.02;68.44
66582;SHT31;53438;48.898;2.308;2023-07-09T11:09:02;25.27;67.48
66582;SHT31;53438;48.898;2.308;2023-07-09T11:11:59;24.91;67.06
66582;SHT31;53438;48.898;2.308;2023-07-09T11:14:48;25.19;67.42
66582;SHT31;53438;48.898;2.308;2023-07-09T11:17:17;25.35;66.65
66582;SHT31;53438;48.898;2.308;2023-07-09T11:19:48;25.51;65.48
66582;SHT31;53438;48.898;2.308;2023-07-09T11:22:24;25.67;65.56
66582;SHT31;53438;48.898;2.308;2023-07-09T11:27:24;25.68;65.07
66582;SHT31;53438;48.898;2.308;2023-07-09T11:30:02;25.57;65.42
66582;SHT31;53438;48.898;2.308;2023-07-09T11:32:29;25.88;64.52
66582;SHT31;53438;48.898;2.308;2023-07-09T11:34:54;26.00;64.45
66582;SHT31;53438;48.898;2.308;2023-07-09T11:37:25;26.13;63.98
66582;SHT31;53438;48.898;2.308;2023-07-09T11:39:51;26.26;63.00
66582;SHT31;53438;48.898;2.308;2023-07-09T11:42:33;26.28;62.66
66582;SHT31;53438;48.898;2.308;2023-07-09T11:45:03;26.22;62.87
66582;SHT31;53438;48.898;2.308;2023-07-09T11:47:44;26.32;62.13
66582;SHT31;53438;48.898;2.308;2023-07-09T11:50:32;26.37;62.36
66582;SHT31;53438;48.898;2.308;2023-07-09T11:55:43;26.26;61.99
66582;SHT31;53438;48.898;2.308;2023-07-09T11:58:17;26.67;61.10
66582;SHT31;53438;48.898;2.308;2023-07-09T12:00:47;26.60;60.76
66582;SHT31;53438;48.898;2.308;2023-07-09T12:05:52;26.53;60.92
66582;SHT31;53438;48.898;2.308;2023-07-09T12:08:23;26.67;60.93
66582;SHT31;53438;48.898;2.308;2023-07-09T12:10:52;26.61;60.91
66582;SHT31;53438;48.898;2.308;2023-07-09T12:13:18;26.95;60.20
66582;SHT31;53438;48.898;2.308;2023-07-09T12:15:43;27.11;59.48
66582;SHT31;53438;48.898;2.308;2023-07-09T12:18:14;27.14;59.46
66582;SHT31;53438;48.898;2.308;2023-07-09T12:20:40;27.04;60.60
66582;SHT31;53438;48.898;2.308;2023-07-09T12:23:27;26.70;59.60
66582;SHT31;53438;48.898;2.308;2023-07-09T12:25:54;26.58;59.58
66582;SHT31;53438;48.898;2.308;2023-07-09T12:28:22;26.88;59.11
66582;SHT31;53438;48.898;2.308;2023-07-09T12:30:49;27.04;58.43
66582;SHT31;53438;48.898;2.308;2023-07-09T12:33:19;27.19;57.74
66582;SHT31;53438;48.898;2.308;2023-07-09T12:35:46;27.32;56.99
66582;SHT31;53438;48.898;2.308;2023-07-09T12:38:23;27.48;56.53
66582;SHT31;53438;48.898;2.308;2023-07-09T12:40:50;27.26;55.95
66582;SHT31;53438;48.898;2.308;2023-07-09T12:43:34;27.55;55.65
66582;SHT31;53438;48.898;2.308;2023-07-09T12:45:59;27.69;54.55
66582;SHT31;53438;48.898;2.308;2023-07-09T12:48:27;27.60;54.25
66582;SHT31;53438;48.898;2.308;2023-07-09T12:50:58;27.67;54.23
66582;SHT31;53438;48.898;2.308;2023-07-09T12:53:28;27.66;53.96
66582;SHT31;53438;48.898;2.308;2023-07-09T12:55:59;27.65;54.29
66582;SHT31;53438;48.898;2.308;2023-07-09T12:58:28;27.76;54.19
66582;SHT31;53438;48.898;2.308;2023-07-09T13:00:55;27.86;53.56
66582;SHT31;53438;48.898;2.308;2023-07-09T13:03:29;27.77;53.71
66582;SHT31;53438;48.898;2.308;2023-07-09T13:06:24;27.71;53.60
66582;SHT31;53438;48.898;2.308;2023-07-09T13:08:56;27.97;53.36
66582;SHT31;53438;48.898;2.308;2023-07-09T13:11:22;28.10;53.13
66582;SHT31;53438;48.898;2.308;2023-07-09T13:13:58;28.14;52.71
66582;SHT31;53438;48.898;2.308;2023-07-09T13:16:24;28.04;53.07
66582;SHT31;53438;48.898;2.308;2023-07-09T13:18:49;28.03;52.78
66582;SHT31;53438;48.898;2.308;2023-07-09T13:21:19;28.03;52.44
66582;SHT31;53438;48.898;2.308;2023-07-09T13:23:45;27.86;53.32
66582;SHT31;53438;48.898;2.308;2023-07-09T13:26:12;27.80;52.96
66582;SHT31;53438;48.898;2.308;2023-07-09T13:28:39;27.71;53.26
66582;SHT31;53438;48.898;2.308;2023-07-09T13:31:15;27.92;53.27
66582;SHT31;53438;48.898;2.308;2023-07-09T13:33:50;27.93;53.08
66582;SHT31;53438;48.898;2.308;2023-07-09T13:36:17;28.07;53.19
66582;SHT31;53438;48.898;2.308;2023-07-09T13:38:43;28.13;53.11
66582;SHT31;53438;48.898;2.308;2023-07-09T13:41:17;28.18;52.56
66582;SHT31;53438;48.898;2.308;2023-07-09T13:43:45;28.18;52.65
66582;SHT31;53438;48.898;2.308;2023-07-09T13:46:11;28.27;52.37
66582;SHT31;53438;48.898;2.308;2023-07-09T13:48:39;28.25;52.15
66582;SHT31;53438;48.898;2.308;2023-07-09T13:53:39;28.43;52.24
66582;SHT31;53438;48.898;2.308;2023-07-09T13:56:04;28.47;52.32
66582;SHT31;53438;48.898;2.308;2023-07-09T13:58:29;28.58;51.87
66582;SHT31;53438;48.898;2.308;2023-07-09T14:00:58;28.47;52.17
66582;SHT31;53438;48.898;2.308;2023-07-09T14:03:32;28.44;51.88
66582;SHT31;53438;48.898;2.308;2023-07-09T14:05:58;28.43;52.49
66582;SHT31;53438;48.898;2.308;2023-07-09T14:08:23;28.43;51.01
66582;SHT31;53438;48.898;2.308;2023-07-09T14:10:49;28.35;51.78
66582;SHT31;53438;48.898;2.308;2023-07-09T14:13:17;28.24;52.01
66582;SHT31;53438;48.898;2.308;2023-07-09T14:15:43;28.25;51.27
66582;SHT31;53438;48.898;2.308;2023-07-09T14:18:17;28.21;51.30
66582;SHT31;53438;48.898;2.308;2023-07-09T14:20:43;28.31;51.59
66582;SHT31;53438;48.898;2.308;2023-07-09T14:23:14;28.41;51.19
66582;SHT31;53438;48.898;2.308;2023-07-09T14:25:41;27.98;51.61
66582;SHT31;53438;48.898;2.308;2023-07-09T14:28:11;28.10;52.15
66582;SHT31;53438;48.898;2.308;2023-07-09T14:30:37;28.22;51.78
66582;SHT31;53438;48.898;2.308;2023-07-09T14:33:02;28.40;51.03
66582;SHT31;53438;48.898;2.308;2023-07-09T14:35:29;28.14;51.13
66582;SHT31;53438;48.898;2.308;2023-07-09T14:37:55;28.04;51.12
66582;SHT31;53438;48.898;2.308;2023-07-09T14:40:21;27.87;52.31
66582;SHT31;53438;48.898;2.308;2023-07-09T14:42:48;27.82;53.03
66582;SHT31;53438;48.898;2.308;2023-07-09T14:45:21;28.04;52.86
66582;SHT31;53438;48.898;2.308;2023-07-09T14:47:49;27.83;53.80
66582;SHT31;53438;48.898;2.308;2023-07-09T14:50:15;27.79;54.10
66582;SHT31;53438;48.898;2.308;2023-07-09T14:52:42;27.89;53.59
66582;SHT31;53438;48.898;2.308;2023-07-09T14:55:19;27.77;53.63
66582;SHT31;53438;48.898;2.308;2023-07-09T14:57:45;27.62;53.80
66582;SHT31;53438;48.898;2.308;2023-07-09T15:00:19;27.55;54.17
66582;SHT31;53438;48.898;2.308;2023-07-09T15:02:45;27.57;54.19
66582;SHT31;53438;48.898;2.308;2023-07-09T15:05:22;27.53;53.83
66582;SHT31;53438;48.898;2.308;2023-07-09T15:07:48;27.35;54.20
66582;SHT31;53438;48.898;2.308;2023-07-09T15:10:25;27.41;54.53
66582;SHT31;53438;48.898;2.308;2023-07-09T15:12:52;27.36;54.60
66582;SHT31;53438;48.898;2.308;2023-07-09T15:15:24;27.45;54.26
66582;SHT31;53438;48.898;2.308;2023-07-09T15:17:50;27.46;54.16
66582;SHT31;53438;48.898;2.308;2023-07-09T15:20:21;27.50;54.26
66582;SHT31;53438;48.898;2.308;2023-07-09T15:22:48;27.50;53.93
66582;SHT31;53438;48.898;2.308;2023-07-09T15:25:25;27.26;54.54
66582;SHT31;53438;48.898;2.308;2023-07-09T15:27:51;27.35;54.26
66582;SHT31;53438;48.898;2.308;2023-07-09T15:30:24;27.46;54.16
66582;SHT31;53438;48.898;2.308;2023-07-09T15:32:51;27.24;54.59
66582;SHT31;53438;48.898;2.308;2023-07-09T15:35:18;27.11;55.49
66582;SHT31;53438;48.898;2.308;2023-07-09T15:37:45;27.08;55.98
66582;SHT31;53438;48.898;2.308;2023-07-09T15:40:27;27.34;55.29
66582;SHT31;53438;48.898;2.308;2023-07-09T15:43:00;27.24;55.46
66582;SHT31;53438;48.898;2.308;2023-07-09T15:45:27;27.18;55.64
66582;SHT31;53438;48.898;2.308;2023-07-09T15:47:53;27.32;55.49
66582;SHT31;53438;48.898;2.308;2023-07-09T15:50:23;27.45;54.89
66582;SHT31;53438;48.898;2.308;2023-07-09T15:52:51;27.39;55.18
66582;SHT31;53438;48.898;2.308;2023-07-09T15:55:27;27.65;54.63
66582;SHT31;53438;48.898;2.308;2023-07-09T15:57:53;27.43;54.80
66582;SHT31;53438;48.898;2.308;2023-07-09T16:00:23;27.36;55.13
66582;SHT31;53438;48.898;2.308;2023-07-09T16:02:49;27.34;55.75
66582;SHT31;53438;48.898;2.308;2023-07-09T16:05:27;27.22;55.88
66582;SHT31;53438;48.898;2.308;2023-07-09T16:07:54;27.11;56.22
66582;SHT31;53438;48.898;2.308;2023-07-09T16:10:21;26.94;56.76
66582;SHT31;53438;48.898;2.308;2023-07-09T16:12:47;26.92;56.85
66582;SHT31;53438;48.898;2.308;2023-07-09T16:15:16;26.77;57.53
66582;SHT31;53438;48.898;2.308;2023-07-09T16:17:42;26.80;57.36
66582;SHT31;53438;48.898;2.308;2023-07-09T16:20:14;26.77;57.67
66582;SHT31;53438;48.898;2.308;2023-07-09T16:22:41;26.98;56.90
66582;SHT31;53438;48.898;2.308;2023-07-09T16:25:20;26.80;56.96
66582;SHT31;53438;48.898;2.308;2023-07-09T16:27:46;26.81;56.91
66582;SHT31;53438;48.898;2.308;2023-07-09T16:30:23;26.78;57.32
66582;SHT31;53438;48.898;2.308;2023-07-09T16:32:50;26.92;57.08
66582;SHT31;53438;48.898;2.308;2023-07-09T16:35:20;26.91;56.93
66582;SHT31;53438;48.898;2.308;2023-07-09T16:37:47;26.70;57.50
66582;SHT31;53438;48.898;2.308;2023-07-09T16:40:14;26.64;57.70
66582;SHT31;53438;48.898;2.308;2023-07-09T16:42:39;26.71;57.94
66582;SHT31;53438;48.898;2.308;2023-07-09T16:45:05;26.73;57.53
66582;SHT31;53438;48.898;2.308;2023-07-09T16:47:31;26.58;58.04
66582;SHT31;53438;48.898;2.308;2023-07-09T16:49:56;26.41;58.54
66582;SHT31;53438;48.898;2.308;2023-07-09T16:52:23;26.43;58.22
66582;SHT31;53438;48.898;2.308;2023-07-09T16:54:50;26.35;58.34
66582;SHT31;53438;48.898;2.308;2023-07-09T16:57:18;26.36;58.48
66582;SHT31;53438;48.898;2.308;2023-07-09T16:59:46;26.28;58.42
66582;SHT31;53438;48.898;2.308;2023-07-09T17:02:31;26.26;58.69
66582;SHT31;53438;48.898;2.308;2023-07-09T17:05:02;26.40;58.47
66582;SHT31;53438;48.898;2.308;2023-07-09T17:07:32;26.32;58.10
66582;SHT31;53438;48.898;2.308;2023-07-09T17:09:58;26.35;58.33
66582;SHT31;53438;48.898;2.308;2023-07-09T17:12:24;26.41;57.95
66582;SHT31;53438;48.898;2.308;2023-07-09T17:14:49;26.37;57.90
66582;SHT31;53438;48.898;2.308;2023-07-09T17:17:17;26.44;57.93
66582;SHT31;53438;48.898;2.308;2023-07-09T17:19:44;26.58;57.70
66582;SHT31;53438;48.898;2.308;2023-07-09T17:22:20;26.53;57.69
66582;SHT31;53438;48.898;2.308;2023-07-09T17:24:46;26.37;57.47
66582;SHT31;53438;48.898;2.308;2023-07-09T17:27:12;26.13;58.08
66582;SHT31;53438;48.898;2.308;2023-07-09T17:29:39;26.13;58.02
66582;SHT31;53438;48.898;2.308;2023-07-09T17:32:05;26.18;57.93
66582;SHT31;53438;48.898;2.308;2023-07-09T17:34:31;26.19;58.38
66582;SHT31;53438;48.898;2.308;2023-07-09T17:36:56;26.09;58.37
66582;SHT31;53438;48.898;2.308;2023-07-09T17:39:23;26.20;57.99
66582;SHT31;53438;48.898;2.308;2023-07-09T17:41:51;26.26;57.89
66582;SHT31;53438;48.898;2.308;2023-07-09T17:44:22;26.20;57.72
66582;SHT31;53438;48.898;2.308;2023-07-09T17:46:49;26.30;57.72
66582;SHT31;53438;48.898;2.308;2023-07-09T17:49:19;26.03;58.06
66582;SHT31;53438;48.898;2.308;2023-07-09T17:51:45;26.12;58.01
66582;SHT31;53438;48.898;2.308;2023-07-09T17:54:19;26.29;58.25
66582;SHT31;53438;48.898;2.308;2023-07-09T17:56:45;26.36;57.10
66582;SHT31;53438;48.898;2.308;2023-07-09T17:59:14;26.43;57.13
66582;SHT31;53438;48.898;2.308;2023-07-09T18:01:41;26.41;56.88
66582;SHT31;53438;48.898;2.308;2023-07-09T18:04:17;26.53;56.54
66582;SHT31;53438;48.898;2.308;2023-07-09T18:06:47;26.29;57.20
66582;SHT31;53438;48.898;2.308;2023-07-09T18:09:18;26.08;57.65
66582;SHT31;53438;48.898;2.308;2023-07-09T18:11:49;26.09;57.68
66582;SHT31;53438;48.898;2.308;2023-07-09T18:14:25;26.15;57.46
66582;SHT31;53438;48.898;2.308;2023-07-09T18:16:52;26.19;57.64
66582;SHT31;53438;48.898;2.308;2023-07-09T18:19:24;26.26;57.32
66582;SHT31;53438;48.898;2.308;2023-07-09T18:21:50;26.15;57.62
66582;SHT31;53438;48.898;2.308;2023-07-09T18:24:17;25.85;58.34
66582;SHT31;53438;48.898;2.308;2023-07-09T18:26:42;25.64;59.18
66582;SHT31;53438;48.898;2.308;2023-07-09T18:29:29;25.64;59.71
66582;SHT31;53438;48.898;2.308;2023-07-09T18:31:55;25.64;60.43
66582;SHT31;53438;48.898;2.308;2023-07-09T18:34:21;25.60;60.54
66582;SHT31;53438;48.898;2.308;2023-07-09T18:36:46;25.54;60.73
66582;SHT31;53438;48.898;2.308;2023-07-09T18:39:11;25.38;61.10
66582;SHT31;53438;48.898;2.308;2023-07-09T18:41:37;25.24;61.55
66582;SHT31;53438;48.898;2.308;2023-07-09T18:44:14;25.28;61.73
66582;SHT31;53438;48.898;2.308;2023-07-09T18:46:40;25.13;62.28
66582;SHT31;53438;48.898;2.308;2023-07-09T18:49:08;25.27;62.38
66582;SHT31;53438;48.898;2.308;2023-07-09T18:51:34;25.26;62.40
66582;SHT31;53438;48.898;2.308;2023-07-09T18:54:08;25.14;62.60
66582;SHT31;53438;48.898;2.308;2023-07-09T18:56:33;25.31;62.34
66582;SHT31;53438;48.898;2.308;2023-07-09T18:58:59;25.44;61.86
66582;SHT31;53438;48.898;2.308;2023-07-09T19:01:24;25.34;61.93
66582;SHT31;53438;48.898;2.308;2023-07-09T19:03:50;25.16;62.81
66582;SHT31;53438;48.898;2.308;2023-07-09T19:06:15;25.30;61.73
66582;SHT31;53438;48.898;2.308;2023-07-09T19:08:41;25.00;61.76
66582;SHT31;53438;48.898;2.308;2023-07-09T19:11:08;25.10;61.56
66582;SHT31;53438;48.898;2.308;2023-07-09T19:13:33;25.00;61.45
66582;SHT31;53438;48.898;2.308;2023-07-09T19:15:59;24.96;61.24